Terminal Aerodrome Forecast
Issued by NWS Greer, SC

Home | Current Version | Previous Version | Text Only | Print | Product List | Glossary On
Versions: 1 2 3 4 5 6 7 8 9 10 11 12 13 14 15 16 17 18 19 20 21 22 23
000
FTUS42 KGSP 291450 AAA
TAFAVL
TAF AMD
KAVL 291450Z 2915/3012 35007KT P6SM VCSH OVC050
     FM291800 35008KT P6SM VCSH OVC035
     FM292300 34005KT P6SM OVC050
     FM300300 33004KT P6SM SCT060 BKN150=

USA.gov is the U.S. government's official web portal to all federal, state and local government web resources and services.